createdAt,value
2023-04-08T00:05:24.451Z,75.69
2023-04-08T00:17:24.925Z,80.78
2023-04-08T00:29:25.396Z,76.20
2023-04-08T00:41:28.538Z,82.48
2023-04-08T00:53:26.277Z,76.60
2023-04-08T01:05:26.723Z,77.36
2023-04-08T01:17:29.468Z,82.95
2023-04-08T01:29:29.879Z,80.67
2023-04-08T01:41:28.039Z,76.50
2023-04-08T01:53:28.529Z,76.50
2023-04-08T02:05:29.017Z,76.15
2023-04-08T02:17:29.486Z,77.33
2023-04-08T02:29:29.890Z,80.13
2023-04-08T02:41:30.304Z,81.24
2023-04-08T02:53:30.822Z,79.70
2023-04-08T03:05:31.232Z,80.08
2023-04-08T03:17:31.735Z,82.60
2023-04-08T03:29:32.143Z,81.78
2023-04-08T03:41:32.606Z,81.44
2023-04-08T03:53:35.866Z,84.60
2023-04-08T04:05:33.476Z,84.22
2023-04-08T04:17:33.993Z,88.15
2023-04-08T04:29:34.425Z,88.87
2023-04-08T04:41:34.814Z,90.41
2023-04-08T04:53:35.298Z,86.95
2023-04-08T05:05:35.772Z,92.16
2023-04-08T05:17:36.278Z,88.80
2023-04-08T05:29:36.685Z,90.49
2023-04-08T05:41:37.171Z,91.56
2023-04-08T05:53:37.572Z,94.37
2023-04-08T06:05:38.015Z,96.54
2023-04-08T06:17:38.506Z,96.61
2023-04-08T06:29:44.636Z,97.14
2023-04-08T06:41:39.357Z,96.31
2023-04-08T06:53:39.845Z,94.65
2023-04-08T07:05:40.273Z,94.64
2023-04-08T07:17:40.807Z,93.66
2023-04-08T07:29:41.175Z,95.80
2023-04-08T07:41:41.840Z,96.12
2023-04-08T07:53:42.170Z,93.60
2023-04-08T08:05:44.792Z,94.38
2023-04-08T08:17:43.028Z,92.26
2023-04-08T08:29:43.477Z,93.90
2023-04-08T08:41:43.915Z,95.87
2023-04-08T08:53:44.342Z,93.93
2023-04-08T09:05:47.678Z,92.38
2023-04-08T09:17:48.354Z,94.37
2023-04-08T09:29:45.716Z,94.82
2023-04-08T09:41:46.154Z,96.51
2023-04-08T09:53:46.627Z,93.92
2023-04-08T10:05:47.081Z,94.50
2023-04-08T10:17:47.561Z,94.82
2023-04-08T10:29:47.974Z,93.96
2023-04-08T10:41:48.414Z,91.67
2023-04-08T10:53:48.977Z,92.36
2023-04-08T11:05:49.297Z,95.56
2023-04-08T11:17:49.792Z,94.09
2023-04-08T11:29:50.228Z,95.59
2023-04-08T11:41:50.698Z,94.83
2023-04-08T11:53:52.202Z,91.06
2023-04-08T12:05:51.565Z,93.79
2023-04-08T12:17:52.095Z,91.43
2023-04-08T12:29:52.483Z,93.58
2023-04-08T12:41:52.926Z,95.08
2023-04-08T12:53:53.403Z,96.27
2023-04-08T13:05:53.853Z,94.99
2023-04-08T13:17:54.330Z,94.31
2023-04-08T13:29:54.773Z,94.05
2023-04-08T13:41:55.220Z,94.58
2023-04-08T13:53:55.666Z,95.85
2023-04-08T14:05:56.145Z,97.64
2023-04-08T14:17:56.628Z,96.49
2023-04-08T14:29:57.026Z,95.61
2023-04-08T14:41:57.479Z,95.88
2023-04-08T14:53:57.956Z,94.76
2023-04-08T15:05:58.402Z,95.27
2023-04-08T15:17:58.817Z,97.92
2023-04-08T15:29:59.251Z,96.37
2023-04-08T15:41:59.760Z,97.60
2023-04-08T15:54:00.145Z,97.82
2023-04-08T16:06:00.626Z,97.65
2023-04-08T16:18:02.846Z,97.59
2023-04-08T16:30:01.548Z,97.60
2023-04-08T16:42:01.974Z,95.95
2023-04-08T16:54:02.456Z,96.81
2023-04-08T17:06:02.883Z,97.68
2023-04-08T17:18:03.398Z,97.46
2023-04-08T17:30:03.797Z,98.35
2023-04-08T17:42:04.239Z,98.56
2023-04-08T17:54:04.706Z,96.84
2023-04-08T18:06:05.175Z,96.87
2023-04-08T18:18:05.607Z,98.44
2023-04-08T18:30:06.050Z,98.43
2023-04-08T18:42:06.505Z,98.60
2023-04-08T18:54:06.992Z,99.32
2023-04-08T19:06:07.410Z,99.91
2023-04-08T19:18:07.843Z,99.44
2023-04-08T19:30:08.318Z,98.75
2023-04-08T19:42:08.775Z,97.38
2023-04-08T19:54:10.967Z,98.12
2023-04-08T20:06:09.687Z,98.73
2023-04-08T20:18:10.121Z,98.88
2023-04-08T20:30:13.391Z,99.40
2023-04-08T20:42:11.034Z,99.80
2023-04-08T20:54:11.527Z,98.93
2023-04-08T21:06:11.972Z,98.92
2023-04-08T21:18:12.412Z,99.24
2023-04-08T21:30:14.586Z,100.00
2023-04-08T21:42:13.321Z,99.65
2023-04-08T21:54:20.994Z,99.15
2023-04-08T22:06:25.583Z,100.00
2023-04-08T22:18:14.688Z,99.74
2023-04-08T22:30:15.097Z,99.58
2023-04-08T22:42:15.565Z,100.00
2023-04-08T22:54:16.020Z,100.00
2023-04-08T23:06:16.439Z,100.00
2023-04-08T23:18:19.645Z,100.00
2023-04-08T23:30:17.378Z,100.00
2023-04-08T23:42:17.835Z,100.00
2023-04-08T23:54:18.267Z,100.00
